Time;durP1;ratioP1;P1;durP2;ratioP2;P2;SDS_P1;SDS_P2;PMS_P1;PMS_P2;Temp;Humidity;BMP_temperature;BMP_pressure;BME280_temperature;BME280_humidity;BME280_pressure;Samples;Min_cycle;Max_cycle;Signal;HPM_P1;HPM_P2
2020/12/20 00:02:02;;;;;;;9.17;8.27;;;4.30;48.60;;;;;;10434497;28;20252;-73
2020/12/20 00:07:08;;;;;;;9.20;8.40;;;4.30;48.00;;;;;;10434200;28;20312;-73
2020/12/20 00:12:11;;;;;;;8.63;7.83;;;4.30;48.30;;;;;;10439718;28;20262;-72
2020/12/20 00:17:14;;;;;;;10.33;9.33;;;4.30;48.50;;;;;;10419455;28;20229;-73
2020/12/20 00:22:16;;;;;;;9.53;8.63;;;4.30;48.40;;;;;;10428374;28;20225;-73
2020/12/20 00:27:19;;;;;;;8.60;7.90;;;4.30;48.40;;;;;;10438931;28;20225;-71
2020/12/20 00:32:22;;;;;;;9.57;8.67;;;4.30;48.40;;;;;;10434470;28;20235;-71
2020/12/20 00:37:24;;;;;;;8.90;8.10;;;4.40;48.60;;;;;;10417859;28;20233;-71
2020/12/20 00:42:27;;;;;;;9.30;8.50;;;4.40;48.60;;;;;;10416640;28;20247;-73
2020/12/20 00:47:30;;;;;;;9.70;8.80;;;4.40;48.30;;;;;;10428213;28;20229;-73
2020/12/20 00:52:32;;;;;;;9.10;8.20;;;4.50;48.20;;;;;;10423438;28;20230;-73
2020/12/20 00:57:36;;;;;;;9.40;8.50;;;4.50;48.20;;;;;;10422057;28;20990;-73
2020/12/20 01:02:38;;;;;;;8.33;7.53;;;4.50;48.20;;;;;;10427367;28;20219;-73
2020/12/20 01:07:40;;;;;;;9.13;8.33;;;4.50;48.20;;;;;;10419983;28;20228;-73
2020/12/20 01:12:44;;;;;;;9.33;8.40;;;4.60;48.20;;;;;;10440321;28;20312;-73
2020/12/20 01:17:46;;;;;;;9.83;8.93;;;4.60;48.20;;;;;;10451266;28;20229;-73
2020/12/20 01:22:51;;;;;;;8.67;7.87;;;4.70;48.30;;;;;;10431220;28;20253;-71
2020/12/20 01:27:54;;;;;;;9.30;8.40;;;4.70;48.30;;;;;;10430083;28;20256;-71
2020/12/20 01:32:56;;;;;;;9.17;8.33;;;4.70;48.30;;;;;;10441563;28;20235;-73
2020/12/20 01:37:58;;;;;;;9.33;8.43;;;4.70;48.30;;;;;;10429309;28;20229;-73
2020/12/20 01:43:01;;;;;;;9.70;8.80;;;4.70;48.30;;;;;;10431816;28;20222;-73
2020/12/20 01:48:04;;;;;;;9.17;8.37;;;4.70;48.30;;;;;;10438157;28;20737;-73
2020/12/20 01:53:07;;;;;;;9.80;8.93;;;4.70;48.30;;;;;;10435560;28;20582;-73
2020/12/20 01:58:10;;;;;;;9.07;8.27;;;4.60;48.00;;;;;;10432598;28;20225;-73
2020/12/20 02:03:12;;;;;;;9.23;8.43;;;4.50;48.20;;;;;;10433831;28;20236;-73
2020/12/20 02:08:14;;;;;;;8.57;7.87;;;4.40;48.10;;;;;;10430220;28;20705;-73
2020/12/20 02:13:17;;;;;;;8.77;7.97;;;4.40;48.10;;;;;;10426532;28;20237;-73
2020/12/20 02:18:20;;;;;;;8.80;8.00;;;4.40;48.10;;;;;;10433722;28;20233;-70
2020/12/20 02:23:24;;;;;;;8.97;8.10;;;4.40;48.10;;;;;;10427052;28;20726;-70
2020/12/20 02:28:26;;;;;;;9.53;8.63;;;4.40;48.10;;;;;;10422196;28;20241;-70
2020/12/20 02:33:28;;;;;;;9.07;8.27;;;4.40;48.80;;;;;;10422351;28;20240;-71
2020/12/20 02:38:31;;;;;;;9.47;8.57;;;4.40;48.10;;;;;;10426571;28;20229;-70
2020/12/20 02:43:33;;;;;;;9.20;8.40;;;4.40;48.10;;;;;;10408061;28;20771;-70
2020/12/20 02:48:36;;;;;;;8.97;8.17;;;4.50;48.20;;;;;;10414401;28;20234;-70
2020/12/20 02:53:39;;;;;;;9.17;8.27;;;4.40;48.10;;;;;;10418589;28;20238;-71
2020/12/20 02:58:41;;;;;;;9.10;8.20;;;4.40;48.10;;;;;;10414526;28;20231;-70
2020/12/20 03:03:43;;;;;;;8.83;8.03;;;4.40;48.10;;;;;;10422420;28;20615;-71
2020/12/20 03:08:46;;;;;;;8.53;7.73;;;4.40;48.10;;;;;;10407455;28;20228;-70
2020/12/20 03:13:48;;;;;;;9.93;9.07;;;4.40;48.10;;;;;;10428069;28;20253;-70
2020/12/20 03:18:51;;;;;;;9.60;8.73;;;4.30;48.00;;;;;;10412413;28;20255;-70
2020/12/20 03:23:54;;;;;;;10.33;9.37;;;4.30;48.00;;;;;;10424286;28;20216;-70
2020/12/20 03:28:56;;;;;;;10.17;9.17;;;4.30;48.00;;;;;;10412825;28;20608;-71
2020/12/20 03:33:58;;;;;;;9.70;8.80;;;4.20;47.90;;;;;;10413443;28;20236;-70
2020/12/20 03:39:01;;;;;;;9.80;8.90;;;4.10;47.90;;;;;;10421885;28;20217;-70
2020/12/20 03:44:04;;;;;;;9.70;8.80;;;4.10;48.40;;;;;;10413540;28;20224;-71
2020/12/20 03:49:06;;;;;;;10.27;9.37;;;4.10;48.40;;;;;;10420868;28;20240;-70
2020/12/20 03:54:09;;;;;;;10.43;9.43;;;4.10;48.50;;;;;;10414751;28;20225;-71
2020/12/20 03:59:11;;;;;;;9.60;8.70;;;4.10;48.60;;;;;;10417912;28;20221;-70
2020/12/20 04:04:13;;;;;;;9.80;8.90;;;4.20;48.50;;;;;;10409740;28;20316;-70
2020/12/20 04:09:16;;;;;;;10.00;9.10;;;4.20;48.50;;;;;;10405758;28;20236;-70
2020/12/20 04:14:19;;;;;;;10.27;9.37;;;4.30;48.70;;;;;;10411680;28;20320;-70
2020/12/20 04:19:22;;;;;;;11.00;9.90;;;4.40;48.40;;;;;;10414432;28;20244;-71
2020/12/20 04:24:25;;;;;;;10.00;9.10;;;4.40;48.10;;;;;;10424105;28;20229;-71
2020/12/20 04:29:27;;;;;;;10.60;9.60;;;4.40;48.10;;;;;;10423210;28;20237;-70
2020/12/20 04:34:29;;;;;;;10.77;9.77;;;4.30;48.00;;;;;;10428575;28;20229;-70
2020/12/20 04:39:32;;;;;;;10.63;9.60;;;4.40;48.10;;;;;;10431877;28;20238;-71
2020/12/20 04:44:35;;;;;;;9.80;8.90;;;4.30;48.20;;;;;;10414701;28;20217;-70
2020/12/20 04:49:38;;;;;;;9.83;8.93;;;4.40;48.40;;;;;;10422477;28;20235;-70
2020/12/20 04:54:44;;;;;;;10.13;9.20;;;4.40;48.10;;;;;;10418792;28;20328;-70
2020/12/20 04:59:47;;;;;;;10.37;9.37;;;4.40;48.10;;;;;;10411963;28;20233;-70
2020/12/20 05:04:49;;;;;;;10.33;9.37;;;4.40;48.10;;;;;;10419974;28;20232;-70
2020/12/20 05:09:52;;;;;;;10.37;9.37;;;4.40;48.10;;;;;;10420278;28;20241;-70
2020/12/20 05:14:55;;;;;;;9.97;9.07;;;4.40;48.10;;;;;;10421906;28;20317;-70
2020/12/20 05:19:57;;;;;;;10.47;9.47;;;4.40;48.10;;;;;;10421310;28;20892;-70
2020/12/20 05:25:15;;;;;;;10.80;9.70;;;4.40;48.10;;;;;;10426198;28;20263;-70
2020/12/20 05:30:18;;;;;;;10.93;9.90;;;4.40;48.10;;;;;;10420864;28;20728;-70
2020/12/20 05:35:21;;;;;;;10.97;9.90;;;4.40;48.10;;;;;;10420093;28;23205;-70
2020/12/20 05:40:27;;;;;;;10.37;9.37;;;4.40;48.10;;;;;;10421821;28;20233;-70
2020/12/20 05:45:32;;;;;;;10.17;9.17;;;4.40;48.10;;;;;;10417105;28;20600;-70
2020/12/20 05:50:34;;;;;;;10.90;9.90;;;4.30;48.00;;;;;;10432646;28;20781;-70
2020/12/20 05:55:39;;;;;;;10.20;9.20;;;4.30;48.00;;;;;;10431462;28;20315;-70
2020/12/20 06:00:43;;;;;;;9.27;8.40;;;4.30;48.00;;;;;;10419617;28;20229;-70
2020/12/20 06:05:46;;;;;;;9.77;8.87;;;4.30;48.00;;;;;;10416842;28;20347;-70
2020/12/20 06:10:51;;;;;;;9.67;8.67;;;4.30;48.00;;;;;;10423501;28;20275;-70
2020/12/20 06:15:55;;;;;;;9.70;8.80;;;4.30;48.00;;;;;;10425423;28;20251;-69
2020/12/20 06:20:59;;;;;;;9.40;8.50;;;4.20;47.90;;;;;;10421236;28;20221;-70
2020/12/20 06:26:03;;;;;;;9.50;8.60;;;4.10;47.90;;;;;;10417497;28;20229;-69
2020/12/20 06:31:06;;;;;;;10.07;9.07;;;4.10;48.20;;;;;;10415652;28;20249;-70
2020/12/20 06:36:11;;;;;;;10.73;9.63;;;4.10;48.20;;;;;;10416765;28;20226;-70
2020/12/20 06:41:33;;;;;;;10.43;9.40;;;4.10;48.40;;;;;;10411245;28;20233;-68
2020/12/20 06:46:40;;;;;;;9.40;8.50;;;4.10;48.70;;;;;;10419535;28;20230;-70
2020/12/20 06:51:42;;;;;;;9.77;8.87;;;4.10;48.50;;;;;;10405268;28;20239;-69
2020/12/20 06:56:45;;;;;;;10.23;9.23;;;4.20;48.30;;;;;;10423643;28;20240;-69
2020/12/20 07:01:47;;;;;;;9.20;8.40;;;4.20;48.00;;;;;;10422418;28;20225;-69
2020/12/20 07:07:07;;;;;;;9.97;8.43;;;4.20;48.00;;;;;;10428781;28;20229;-69
2020/12/20 07:12:32;;;;;;;9.87;8.87;;;4.20;48.30;;;;;;10413663;28;20229;-69
2020/12/20 07:17:45;;;;;;;9.13;8.33;;;4.20;48.40;;;;;;10425874;28;20243;-69
2020/12/20 07:22:50;;;;;;;9.67;8.67;;;4.20;48.40;;;;;;10418540;28;20332;-69
2020/12/20 07:27:53;;;;;;;10.17;9.20;;;4.20;48.00;;;;;;10397366;28;646771;-70
2020/12/20 07:32:55;;;;;;;9.33;8.43;;;4.20;48.30;;;;;;10416700;28;20229;-70
2020/12/20 07:37:58;;;;;;;9.87;8.93;;;4.30;48.40;;;;;;10421553;28;20235;-70
2020/12/20 07:43:01;;;;;;;9.20;8.30;;;4.30;48.20;;;;;;10412579;28;20225;-70
2020/12/20 07:48:04;;;;;;;9.77;8.87;;;4.30;48.00;;;;;;10416717;28;20234;-70
2020/12/20 07:53:06;;;;;;;9.80;8.90;;;4.30;48.00;;;;;;10415593;28;20252;-70
2020/12/20 07:58:09;;;;;;;10.50;9.57;;;4.30;48.10;;;;;;10421465;28;20709;-69
2020/12/20 08:03:12;;;;;;;9.63;8.73;;;4.40;48.10;;;;;;10417792;28;20233;-70
2020/12/20 08:08:21;;;;;;;10.37;9.27;;;4.30;48.10;;;;;;10418169;28;20682;-70
2020/12/20 08:13:25;;;;;;;9.53;8.63;;;4.30;48.50;;;;;;10417095;28;20236;-70
2020/12/20 08:18:30;;;;;;;10.20;9.20;;;4.30;48.40;;;;;;10417111;28;20232;-72
2020/12/20 08:23:33;;;;;;;9.23;8.33;;;4.30;48.00;;;;;;10427747;28;20291;-72
2020/12/20 08:28:36;;;;;;;9.80;8.83;;;4.30;48.00;;;;;;10415066;28;20230;-72
2020/12/20 08:33:38;;;;;;;9.87;8.87;;;4.30;48.30;;;;;;10419083;28;20819;-72
2020/12/20 08:38:40;;;;;;;11.37;10.23;;;4.20;48.40;;;;;;10417280;28;20229;-72
2020/12/20 08:43:43;;;;;;;9.77;8.77;;;4.20;48.30;;;;;;10420483;28;20236;-73
2020/12/20 08:48:46;;;;;;;9.57;8.67;;;4.20;48.70;;;;;;10421828;28;20725;-72
2020/12/20 08:53:48;;;;;;;9.30;8.40;;;4.40;48.90;;;;;;10421431;28;20235;-72
2020/12/20 08:58:51;;;;;;;11.60;9.40;;;4.40;48.70;;;;;;10412423;28;20226;-71
2020/12/20 09:03:54;;;;;;;9.27;8.37;;;4.40;48.70;;;;;;10414038;28;20235;-72
2020/12/20 09:08:56;;;;;;;9.23;8.33;;;4.40;48.60;;;;;;10419578;28;20230;-72
2020/12/20 09:14:10;;;;;;;9.40;8.43;;;4.50;48.30;;;;;;10421035;28;20236;-72
2020/12/20 09:19:12;;;;;;;10.47;9.47;;;4.50;48.60;;;;;;10422457;28;20213;-72
2020/12/20 09:24:15;;;;;;;9.77;8.77;;;4.60;48.30;;;;;;10420816;28;20222;-72
2020/12/20 09:29:18;;;;;;;11.57;10.37;;;4.60;48.20;;;;;;10417874;28;20232;-72
2020/12/20 09:34:32;;;;;;;11.33;10.00;;;4.70;48.30;;;;;;10436237;28;20585;-72
2020/12/20 09:39:54;;;;;;;10.03;9.03;;;4.70;48.30;;;;;;10419873;28;20729;-72
2020/12/20 09:44:57;;;;;;;9.20;8.30;;;4.70;48.30;;;;;;10415600;28;20332;-72
2020/12/20 09:50:00;;;;;;;10.30;9.27;;;4.80;48.40;;;;;;10428392;28;20221;-72
2020/12/20 09:55:03;;;;;;;9.33;8.43;;;4.80;48.40;;;;;;10428239;28;20228;-72
2020/12/20 10:00:06;;;;;;;9.37;8.47;;;4.90;48.50;;;;;;10428222;28;20223;-72
2020/12/20 10:05:08;;;;;;;10.70;9.70;;;4.90;48.50;;;;;;10420183;28;20237;-72
2020/12/20 10:10:10;;;;;;;9.73;8.77;;;5.00;48.50;;;;;;10435965;28;20237;-73
2020/12/20 10:15:13;;;;;;;8.77;7.97;;;5.00;48.40;;;;;;10419161;28;20236;-72
2020/12/20 10:20:16;;;;;;;9.23;8.37;;;5.00;48.60;;;;;;10419105;28;20735;-72
2020/12/20 10:25:18;;;;;;;10.07;9.07;;;5.00;48.60;;;;;;10421469;28;20231;-73
2020/12/20 10:30:21;;;;;;;10.20;9.13;;;5.00;48.50;;;;;;10421896;28;20222;-73
2020/12/20 10:35:27;;;;;;;10.70;9.70;;;5.10;48.60;;;;;;10437329;28;20256;-73
2020/12/20 10:40:29;;;;;;;8.97;8.07;;;5.10;48.40;;;;;;10431840;28;20236;-73
2020/12/20 10:45:32;;;;;;;9.90;8.90;;;5.10;48.20;;;;;;10428518;28;20237;-73
2020/12/20 10:50:34;;;;;;;11.00;9.83;;;5.10;48.60;;;;;;10425256;28;20214;-73
2020/12/20 10:55:37;;;;;;;18.37;16.47;;;5.10;48.20;;;;;;10434272;28;20225;-73
2020/12/20 11:00:40;;;;;;;13.17;11.83;;;5.10;48.20;;;;;;10423322;28;20213;-72
2020/12/20 11:05:42;;;;;;;19.77;16.77;;;5.10;48.40;;;;;;10422700;28;20229;-72
2020/12/20 11:10:44;;;;;;;10.70;9.70;;;5.10;48.60;;;;;;10423913;28;20223;-73
2020/12/20 11:15:48;;;;;;;13.43;11.90;;;5.10;48.70;;;;;;10438058;28;20232;-72
2020/12/20 11:20:50;;;;;;;10.97;9.87;;;5.10;48.60;;;;;;10431289;28;20217;-73
2020/12/20 11:25:56;;;;;;;10.07;8.93;;;5.20;48.70;;;;;;10426706;28;20239;-72
2020/12/20 11:30:59;;;;;;;14.03;11.43;;;5.20;48.60;;;;;;10432807;28;20239;-72
2020/12/20 11:36:02;;;;;;;11.10;10.00;;;5.20;48.70;;;;;;10435184;28;20221;-72
2020/12/20 11:41:05;;;;;;;11.47;10.33;;;5.20;48.70;;;;;;10436526;28;20262;-73
2020/12/20 11:46:10;;;;;;;10.27;9.27;;;5.30;48.80;;;;;;10426908;28;20220;-72
2020/12/20 11:51:14;;;;;;;11.20;10.10;;;5.30;48.70;;;;;;10426466;28;20232;-73
2020/12/20 11:56:17;;;;;;;10.17;9.17;;;5.40;48.60;;;;;;10421057;28;20222;-73
2020/12/20 12:01:22;;;;;;;10.40;9.40;;;5.40;48.20;;;;;;10421203;28;20244;-73
2020/12/20 12:06:24;;;;;;;9.90;8.90;;;5.40;48.20;;;;;;10421521;28;20395;-73
2020/12/20 12:11:27;;;;;;;8.43;7.57;;;5.40;48.20;;;;;;10424014;28;20262;-73
2020/12/20 12:16:30;;;;;;;9.37;8.47;;;5.30;48.40;;;;;;10423425;28;20250;-73
2020/12/20 12:21:32;;;;;;;10.90;9.80;;;5.40;48.90;;;;;;10425554;28;20603;-73
2020/12/20 12:26:34;;;;;;;11.40;10.20;;;5.40;48.40;;;;;;10425556;28;20235;-73
2020/12/20 12:31:37;;;;;;;10.50;9.50;;;5.40;48.00;;;;;;10420818;28;20245;-73
2020/12/20 12:36:40;;;;;;;10.50;9.47;;;5.30;48.20;;;;;;10431884;28;20327;-72
2020/12/20 12:41:42;;;;;;;11.47;10.20;;;5.40;48.40;;;;;;10429387;28;20225;-73
2020/12/20 12:46:47;;;;;;;11.30;10.03;;;5.40;48.90;;;;;;10432816;28;20231;-73
2020/12/20 12:51:50;;;;;;;11.77;10.67;;;5.40;48.90;;;;;;10431960;28;20723;-73
2020/12/20 12:56:54;;;;;;;10.27;9.27;;;5.50;48.90;;;;;;10445778;28;20227;-73
2020/12/20 13:01:58;;;;;;;9.83;8.83;;;5.50;48.60;;;;;;10442720;28;20275;-73
2020/12/20 13:07:00;;;;;;;9.20;8.30;;;5.60;48.40;;;;;;10431683;28;20288;-73
2020/12/20 13:12:04;;;;;;;9.27;8.23;;;5.60;48.60;;;;;;10430196;28;20217;-73
2020/12/20 13:17:07;;;;;;;8.10;7.30;;;5.70;48.60;;;;;;10435243;28;20561;-73
2020/12/20 13:22:09;;;;;;;9.03;8.13;;;5.70;48.30;;;;;;10436604;28;20221;-73
2020/12/20 13:27:11;;;;;;;9.57;8.63;;;5.80;48.30;;;;;;10439499;28;20221;-73
2020/12/20 13:32:14;;;;;;;8.80;8.00;;;5.80;48.10;;;;;;10437760;28;20227;-73
2020/12/20 13:37:17;;;;;;;9.10;8.20;;;5.80;47.70;;;;;;10441081;28;20225;-72
2020/12/20 13:42:21;;;;;;;9.50;8.60;;;5.70;47.70;;;;;;10430628;28;20386;-73
2020/12/20 13:47:25;;;;;;;10.37;9.37;;;5.70;47.70;;;;;;10435394;28;20566;-72
2020/12/20 13:52:27;;;;;;;9.30;8.40;;;5.60;47.90;;;;;;10435679;28;20232;-73
2020/12/20 13:57:31;;;;;;;9.27;8.37;;;5.50;48.50;;;;;;10436255;28;20240;-73
2020/12/20 14:02:34;;;;;;;8.73;7.93;;;5.50;48.00;;;;;;10436881;28;20660;-73
2020/12/20 14:07:37;;;;;;;10.20;9.20;;;5.40;48.00;;;;;;10426726;28;20347;-73
2020/12/20 14:12:39;;;;;;;10.10;9.10;;;5.40;48.10;;;;;;10436462;28;20313;-73
2020/12/20 14:17:42;;;;;;;10.43;9.33;;;5.30;48.10;;;;;;10440593;28;20237;-73
2020/12/20 14:22:45;;;;;;;9.43;8.43;;;5.30;48.20;;;;;;10420001;28;20230;-73
2020/12/20 14:27:47;;;;;;;9.80;8.80;;;5.30;48.20;;;;;;10432558;28;20588;-73
2020/12/20 14:32:50;;;;;;;11.33;10.23;;;5.30;48.40;;;;;;10434494;28;20235;-73
2020/12/20 14:37:52;;;;;;;10.13;9.13;;;5.30;48.40;;;;;;10429901;28;20233;-73
2020/12/20 14:42:56;;;;;;;8.93;8.07;;;5.30;48.20;;;;;;10433064;28;20227;-73
2020/12/20 14:47:59;;;;;;;9.33;8.43;;;5.30;48.20;;;;;;10438031;28;20228;-73
2020/12/20 14:53:02;;;;;;;12.50;11.30;;;5.30;48.30;;;;;;10429760;28;20229;-73
2020/12/20 14:58:04;;;;;;;11.47;9.03;;;5.30;48.40;;;;;;10437146;28;20229;-72
2020/12/20 15:03:07;;;;;;;9.10;8.20;;;5.40;48.20;;;;;;10435408;28;20225;-72
2020/12/20 15:08:10;;;;;;;13.07;11.67;;;5.40;48.20;;;;;;10442935;28;20252;-73
2020/12/20 15:13:13;;;;;;;10.83;9.73;;;5.40;48.30;;;;;;10431820;28;20315;-73
2020/12/20 15:18:18;;;;;;;10.13;9.13;;;5.40;48.20;;;;;;10424580;28;20749;-73
2020/12/20 15:23:20;;;;;;;9.87;8.93;;;5.40;48.10;;;;;;10430585;28;20315;-73
2020/12/20 15:28:23;;;;;;;9.13;8.27;;;5.40;47.80;;;;;;10428047;28;20580;-72
2020/12/20 15:33:26;;;;;;;10.43;8.47;;;5.40;47.70;;;;;;10427678;28;20240;-71
2020/12/20 15:38:48;;;;;;;9.40;8.40;;;5.30;48.80;;;;;;10432240;28;20219;-72
2020/12/20 15:43:50;;;;;;;8.60;7.80;;;5.40;48.90;;;;;;10430878;28;20225;-73
2020/12/20 15:48:53;;;;;;;9.53;8.63;;;5.50;49.00;;;;;;10434157;28;20224;-73
2020/12/20 15:53:55;;;;;;;9.57;8.67;;;5.60;48.60;;;;;;10433151;28;20257;-73
2020/12/20 15:58:58;;;;;;;13.77;12.37;;;5.60;48.20;;;;;;10427322;28;20229;-73
2020/12/20 16:04:01;;;;;;;15.50;13.43;;;5.60;47.90;;;;;;10430002;28;20315;-73
2020/12/20 16:09:04;;;;;;;12.83;11.57;;;5.60;47.80;;;;;;10433019;28;20227;-73
2020/12/20 16:14:06;;;;;;;48.33;30.53;;;5.60;47.90;;;;;;10434420;28;20754;-73
2020/12/20 16:19:09;;;;;;;14.43;11.40;;;5.60;47.90;;;;;;10435756;28;20292;-73
2020/12/20 16:24:12;;;;;;;13.30;11.83;;;5.60;48.00;;;;;;10435310;28;20233;-73
2020/12/20 16:29:14;;;;;;;12.63;11.20;;;5.60;47.90;;;;;;10444302;28;20231;-73
2020/12/20 16:34:19;;;;;;;23.63;16.53;;;5.60;48.00;;;;;;10437476;28;20228;-73
2020/12/20 16:39:21;;;;;;;28.40;25.33;;;5.60;48.00;;;;;;10444139;28;20427;-73
2020/12/20 16:44:45;;;;;;;22.30;17.73;;;5.60;47.90;;;;;;10435563;28;20220;-73
2020/12/20 16:49:48;;;;;;;13.40;12.00;;;5.60;47.70;;;;;;10437564;28;20315;-73
2020/12/20 16:54:50;;;;;;;9.03;8.13;;;5.60;47.60;;;;;;10440158;28;20225;-73
2020/12/20 16:59:52;;;;;;;10.53;9.47;;;5.50;47.70;;;;;;10441499;28;20216;-73
2020/12/20 17:05:15;;;;;;;10.47;9.37;;;5.50;47.50;;;;;;10440441;28;20240;-73
2020/12/20 17:10:23;;;;;;;11.50;10.27;;;5.40;47.70;;;;;;10436942;28;20229;-73
2020/12/20 17:15:30;;;;;;;12.10;10.80;;;5.40;48.00;;;;;;10435338;28;20238;-73
2020/12/20 17:20:38;;;;;;;13.13;11.73;;;5.30;48.00;;;;;;10437313;28;20348;-73
2020/12/20 17:25:45;;;;;;;10.97;9.83;;;5.30;47.90;;;;;;10443745;28;20228;-73
2020/12/20 17:30:54;;;;;;;11.27;9.40;;;5.30;48.10;;;;;;10425438;28;20228;-74
2020/12/20 17:36:04;;;;;;;10.27;9.20;;;5.40;48.20;;;;;;10450283;28;20274;-73
2020/12/20 17:41:13;;;;;;;11.43;10.23;;;5.40;48.10;;;;;;10431796;28;20217;-73
2020/12/20 17:46:21;;;;;;;10.77;9.53;;;5.40;48.10;;;;;;10436691;28;20221;-73
2020/12/20 17:51:29;;;;;;;9.87;8.87;;;5.40;48.10;;;;;;10443922;28;20244;-73
2020/12/20 17:56:34;;;;;;;8.83;7.93;;;5.40;48.00;;;;;;10430785;28;20258;-74
2020/12/20 18:01:36;;;;;;;11.00;9.83;;;5.40;47.90;;;;;;10436483;28;20308;-73
2020/12/20 18:06:39;;;;;;;10.87;9.77;;;5.40;48.00;;;;;;10432967;28;20221;-71
2020/12/20 18:11:42;;;;;;;30.63;26.43;;;5.40;48.10;;;;;;10444765;28;20225;-71
2020/12/20 18:16:44;;;;;;;12.03;10.73;;;5.50;48.20;;;;;;10430554;28;20235;-71
2020/12/20 18:21:47;;;;;;;12.33;11.00;;;5.50;48.10;;;;;;10445776;28;20225;-71
2020/12/20 18:26:49;;;;;;;16.67;14.93;;;5.50;48.00;;;;;;10434398;28;20601;-71
2020/12/20 18:31:51;;;;;;;14.03;12.53;;;5.60;48.00;;;;;;10433193;28;20228;-71
2020/12/20 18:36:54;;;;;;;12.03;10.80;;;5.60;47.80;;;;;;10433437;28;20229;-71
2020/12/20 18:41:57;;;;;;;12.33;11.10;;;5.60;47.90;;;;;;10441596;28;20228;-74
2020/12/20 18:46:59;;;;;;;20.30;12.97;;;5.60;47.70;;;;;;10441609;28;20239;-73
2020/12/20 18:52:02;;;;;;;14.40;12.20;;;5.60;47.70;;;;;;10438531;28;20593;-73
2020/12/20 18:57:06;;;;;;;42.10;25.20;;;5.50;47.60;;;;;;10429210;28;20322;-71
2020/12/20 19:02:08;;;;;;;27.50;17.10;;;5.50;47.60;;;;;;10428922;28;20596;-71
2020/12/20 19:07:12;;;;;;;13.60;11.53;;;5.40;47.50;;;;;;10426315;28;20316;-71
2020/12/20 19:12:14;;;;;;;13.40;11.13;;;5.40;47.50;;;;;;10422646;28;20583;-71
2020/12/20 19:17:17;;;;;;;13.60;11.47;;;5.30;47.50;;;;;;10426450;28;20229;-71
2020/12/20 19:22:20;;;;;;;12.97;10.87;;;5.40;47.80;;;;;;10426419;28;20226;-71
2020/12/20 19:27:24;;;;;;;12.17;10.20;;;5.30;47.60;;;;;;10423623;28;20237;-71
2020/12/20 19:32:26;;;;;;;14.70;11.97;;;5.30;48.00;;;;;;10423400;28;20236;-71
2020/12/20 19:37:30;;;;;;;14.47;11.60;;;5.30;48.00;;;;;;10424651;28;20765;-71
2020/12/20 19:42:33;;;;;;;12.40;10.87;;;5.30;47.90;;;;;;10428373;28;20229;-71
2020/12/20 19:47:36;;;;;;;11.83;10.50;;;5.30;47.70;;;;;;10432677;28;20666;-71
2020/12/20 19:52:40;;;;;;;12.53;11.23;;;5.20;47.90;;;;;;10421202;28;20287;-71
2020/12/20 19:57:42;;;;;;;13.50;11.43;;;5.20;47.90;;;;;;10416176;28;20413;-71
2020/12/20 20:02:44;;;;;;;13.27;11.50;;;5.20;47.90;;;;;;10428180;28;20228;-74
2020/12/20 20:07:48;;;;;;;16.87;14.37;;;5.10;48.10;;;;;;10423833;28;20710;-74
2020/12/20 20:12:50;;;;;;;15.13;13.30;;;5.10;48.10;;;;;;10421171;28;20758;-75
2020/12/20 20:17:52;;;;;;;14.53;13.03;;;5.10;47.90;;;;;;10418359;28;20336;-71
2020/12/20 20:22:55;;;;;;;14.07;12.50;;;5.10;47.90;;;;;;10420675;28;20214;-74
2020/12/20 20:27:58;;;;;;;15.43;12.93;;;5.00;48.00;;;;;;10419350;28;20232;-71
2020/12/20 20:33:00;;;;;;;14.97;13.20;;;5.00;48.30;;;;;;10420212;28;20217;-74
2020/12/20 20:38:04;;;;;;;16.43;13.53;;;5.00;48.50;;;;;;10421252;28;20304;-74
2020/12/20 20:43:06;;;;;;;15.47;13.60;;;5.00;48.20;;;;;;10427458;28;20226;-74
2020/12/20 20:48:08;;;;;;;14.67;12.20;;;5.00;48.20;;;;;;10420615;28;20221;-74
2020/12/20 20:53:11;;;;;;;17.63;15.30;;;5.00;48.20;;;;;;10420159;28;20221;-74
2020/12/20 20:58:13;;;;;;;16.67;14.43;;;5.00;48.10;;;;;;10423643;28;20618;-75
2020/12/20 21:03:16;;;;;;;15.50;13.43;;;5.00;48.20;;;;;;10433307;28;20591;-73
2020/12/20 21:08:19;;;;;;;16.60;14.77;;;4.90;48.10;;;;;;10443566;28;20227;-73
2020/12/20 21:13:21;;;;;;;15.87;13.60;;;5.00;48.10;;;;;;10432287;28;20232;-74
2020/12/20 21:18:24;;;;;;;15.93;13.23;;;5.00;48.20;;;;;;10436195;28;20237;-74
2020/12/20 21:23:27;;;;;;;19.20;16.07;;;5.00;48.40;;;;;;10437497;28;20693;-73
2020/12/20 21:28:29;;;;;;;19.00;16.40;;;5.00;48.50;;;;;;10450298;28;20233;-73
2020/12/20 21:33:32;;;;;;;19.73;16.63;;;5.10;48.20;;;;;;10428826;28;20232;-73
2020/12/20 21:38:35;;;;;;;16.97;13.93;;;5.00;48.10;;;;;;10433796;28;20224;-73
2020/12/20 21:43:39;;;;;;;21.20;17.30;;;5.10;48.40;;;;;;10432100;28;20236;-73
2020/12/20 21:48:41;;;;;;;19.17;14.83;;;5.10;48.30;;;;;;10434523;28;20237;-73
2020/12/20 21:53:45;;;;;;;20.23;16.70;;;5.10;48.60;;;;;;10435237;28;20213;-73
2020/12/20 21:58:47;;;;;;;20.17;16.83;;;5.10;48.70;;;;;;10419183;28;20903;-73
2020/12/20 22:03:49;;;;;;;23.73;17.67;;;5.20;48.70;;;;;;10432753;28;20305;-74
2020/12/20 22:08:52;;;;;;;22.10;17.57;;;5.20;48.20;;;;;;10428524;28;20304;-73
2020/12/20 22:13:54;;;;;;;20.30;16.67;;;5.30;48.20;;;;;;10425532;28;20325;-75
2020/12/20 22:18:57;;;;;;;18.47;15.67;;;5.20;48.00;;;;;;10434902;28;20647;-74
2020/12/20 22:24:00;;;;;;;21.97;17.00;;;5.20;48.00;;;;;;10430142;28;20229;-74
2020/12/20 22:29:03;;;;;;;19.67;15.97;;;5.20;48.10;;;;;;10431062;28;20221;-74
2020/12/20 22:34:05;;;;;;;19.03;15.83;;;5.20;48.00;;;;;;10417567;28;20320;-74
2020/12/20 22:39:09;;;;;;;18.43;15.27;;;5.20;48.00;;;;;;10426713;28;20582;-74
2020/12/20 22:44:11;;;;;;;17.70;14.47;;;5.20;48.00;;;;;;10417222;28;20229;-74
2020/12/20 22:49:14;;;;;;;19.73;15.07;;;5.20;47.90;;;;;;10420358;28;20244;-74
2020/12/20 22:54:17;;;;;;;18.43;15.10;;;5.20;48.00;;;;;;10423201;28;20237;-74
2020/12/20 22:59:19;;;;;;;20.40;16.87;;;5.20;48.30;;;;;;10421641;28;20751;-75
2020/12/20 23:04:21;;;;;;;18.40;15.43;;;5.20;48.20;;;;;;10421708;28;20256;-74
2020/12/20 23:09:25;;;;;;;20.23;15.67;;;5.20;48.20;;;;;;10417608;28;20911;-74
2020/12/20 23:14:27;;;;;;;21.57;16.43;;;5.20;48.20;;;;;;10420833;28;20257;-74
2020/12/20 23:19:33;;;;;;;20.07;15.93;;;5.20;48.20;;;;;;10418596;28;20236;-74
2020/12/20 23:24:36;;;;;;;20.27;15.93;;;5.20;48.10;;;;;;10416817;28;20753;-74
2020/12/20 23:29:39;;;;;;;21.57;17.10;;;5.30;48.40;;;;;;10421455;28;20241;-74
2020/12/20 23:34:41;;;;;;;20.37;15.90;;;5.30;48.20;;;;;;10419139;28;20645;-74
2020/12/20 23:39:44;;;;;;;21.03;15.60;;;5.30;48.30;;;;;;10417205;28;20228;-74
2020/12/20 23:44:46;;;;;;;21.63;16.90;;;5.30;48.40;;;;;;10417465;28;20225;-74
2020/12/20 23:49:49;;;;;;;21.20;16.63;;;5.30;48.40;;;;;;10420726;28;20693;-74
2020/12/20 23:54:52;;;;;;;21.90;16.97;;;5.40;48.40;;;;;;10418218;28;20251;-74
2020/12/20 23:59:54;;;;;;;20.77;15.73;;;5.40;48.20;;;;;;10418920;28;20925;-74
